Time;durP1;ratioP1;P1;durP2;ratioP2;P2;SDS_P1;SDS_P2;PMS_P1;PMS_P2;Temp;Humidity;BMP_temperature;BMP_pressure;BME280_temperature;BME280_humidity;BME280_pressure;Samples;Min_cycle;Max_cycle;Signal;HPM_P1;HPM_P2
2020/12/06 00:00:17;;;;;;;42.90;14.95;;;4.80;99.90;;;;;;5060575;28;20208;-72
2020/12/06 00:02:43;;;;;;;35.22;14.63;;;4.80;99.90;;;;;;5042191;28;20238;-71
2020/12/06 00:05:10;;;;;;;38.70;16.30;;;4.80;99.90;;;;;;5061087;28;20201;-72
2020/12/06 00:07:39;;;;;;;43.03;16.23;;;4.80;99.90;;;;;;5056541;28;20683;-71
2020/12/06 00:10:07;;;;;;;43.42;15.45;;;4.80;99.90;;;;;;5056981;28;20197;-71
2020/12/06 00:12:37;;;;;;;49.28;17.27;;;4.80;99.90;;;;;;5043051;28;20276;-71
2020/12/06 00:15:07;;;;;;;54.33;18.23;;;4.90;99.90;;;;;;5059041;28;20254;-71
2020/12/06 00:17:33;;;;;;;50.55;17.67;;;4.90;99.90;;;;;;5060578;28;20209;-71
2020/12/06 00:19:59;;;;;;;42.85;17.10;;;4.90;99.90;;;;;;5057515;28;21063;-71
2020/12/06 00:22:25;;;;;;;47.33;16.75;;;4.90;99.90;;;;;;5060302;28;20197;-71
2020/12/06 00:24:51;;;;;;;45.72;17.85;;;5.00;99.90;;;;;;5059093;28;20201;-71
2020/12/06 00:27:16;;;;;;;50.95;17.80;;;5.00;99.90;;;;;;5062109;28;20215;-71
2020/12/06 00:29:42;;;;;;;52.85;18.50;;;5.00;99.90;;;;;;5061334;28;20188;-71
2020/12/06 00:32:08;;;;;;;47.00;17.67;;;5.00;99.90;;;;;;5063963;28;20660;-71
2020/12/06 00:34:34;;;;;;;47.08;16.83;;;5.00;99.90;;;;;;5060137;28;20204;-72
2020/12/06 00:36:59;;;;;;;42.90;17.33;;;5.00;99.90;;;;;;5059153;28;20179;-71
2020/12/06 00:39:25;;;;;;;40.10;16.75;;;5.00;99.90;;;;;;5061587;28;20221;-71
2020/12/06 00:41:51;;;;;;;46.92;18.48;;;5.00;99.90;;;;;;5039182;28;20204;-71
2020/12/06 00:44:16;;;;;;;42.10;16.88;;;5.00;99.90;;;;;;5061620;28;20196;-71
2020/12/06 00:46:43;;;;;;;44.42;17.85;;;5.00;99.90;;;;;;5033968;28;20211;-71
2020/12/06 00:49:08;;;;;;;48.92;18.60;;;5.00;99.90;;;;;;5061861;28;20189;-71
2020/12/06 00:51:34;;;;;;;44.20;18.27;;;5.00;99.90;;;;;;5062979;28;20723;-71
2020/12/06 00:54:00;;;;;;;54.88;17.98;;;5.00;99.90;;;;;;5055020;28;20196;-71
2020/12/06 00:56:25;;;;;;;46.00;17.65;;;5.00;99.90;;;;;;5062390;28;20744;-72
2020/12/06 00:58:51;;;;;;;46.42;18.10;;;5.00;99.90;;;;;;5060964;28;20245;-72
2020/12/06 01:01:18;;;;;;;40.85;17.52;;;5.00;99.90;;;;;;5042838;28;20596;-71
2020/12/06 01:03:44;;;;;;;44.90;17.35;;;5.00;99.90;;;;;;5062378;28;20296;-72
2020/12/06 01:06:17;;;;;;;47.13;18.25;;;5.00;99.90;;;;;;5064731;28;20196;-71
2020/12/06 01:08:46;;;;;;;43.78;17.33;;;4.90;99.90;;;;;;5061536;28;20414;-71
2020/12/06 01:11:15;;;;;;;51.00;17.80;;;5.00;99.90;;;;;;5060018;28;20602;-71
2020/12/06 01:13:42;;;;;;;44.38;17.58;;;5.00;99.90;;;;;;5059684;28;20204;-71
2020/12/06 01:16:08;;;;;;;48.28;19.27;;;5.00;99.90;;;;;;5062314;28;20204;-72
2020/12/06 01:18:33;;;;;;;53.70;17.75;;;5.00;99.90;;;;;;5043869;28;20373;-71
2020/12/06 01:20:59;;;;;;;48.83;19.58;;;5.00;99.90;;;;;;5061017;28;20299;-72
2020/12/06 01:23:25;;;;;;;43.45;16.95;;;5.00;99.90;;;;;;5061400;28;20192;-71
2020/12/06 01:25:50;;;;;;;47.33;17.25;;;5.00;99.90;;;;;;5060381;28;20220;-71
2020/12/06 01:28:16;;;;;;;68.70;18.73;;;5.00;99.90;;;;;;5061351;28;20210;-72
2020/12/06 01:30:42;;;;;;;50.05;17.60;;;4.90;99.90;;;;;;5043058;28;20189;-72
2020/12/06 01:33:09;;;;;;;53.28;18.50;;;5.00;99.90;;;;;;5061894;28;20208;-72
2020/12/06 01:35:34;;;;;;;39.38;15.30;;;5.00;99.90;;;;;;5059769;28;20871;-73
2020/12/06 01:38:00;;;;;;;69.07;17.27;;;4.90;99.90;;;;;;5066082;28;20196;-73
2020/12/06 01:40:27;;;;;;;55.60;17.95;;;4.90;99.90;;;;;;5065585;28;20193;-73
2020/12/06 01:42:53;;;;;;;51.75;17.13;;;5.00;99.90;;;;;;5048567;28;20704;-73
2020/12/06 01:45:18;;;;;;;41.58;17.85;;;4.90;99.90;;;;;;5064952;28;20228;-73
2020/12/06 01:47:44;;;;;;;70.90;18.17;;;5.00;99.90;;;;;;5066900;28;20185;-72
2020/12/06 01:50:12;;;;;;;55.58;18.88;;;5.00;99.90;;;;;;5064580;28;20193;-72
2020/12/06 01:52:40;;;;;;;59.30;19.25;;;4.90;99.90;;;;;;5072123;28;20251;-72
2020/12/06 01:55:07;;;;;;;43.45;17.60;;;5.00;99.90;;;;;;5063957;28;20204;-72
2020/12/06 01:57:32;;;;;;;59.58;20.00;;;5.00;99.90;;;;;;5068561;28;20241;-72
2020/12/06 01:59:58;;;;;;;57.63;17.38;;;5.00;99.90;;;;;;5064995;28;20593;-72
2020/12/06 02:02:24;;;;;;;46.95;17.15;;;5.00;99.90;;;;;;5059245;22;20246;-82
2020/12/06 02:04:53;;;;;;;37.10;16.88;;;5.00;99.90;;;;;;5015925;28;20211;-82
2020/12/06 02:07:19;;;;;;;41.20;16.45;;;5.00;99.90;;;;;;5019851;28;20230;-82
2020/12/06 02:09:44;;;;;;;46.80;16.77;;;5.00;99.90;;;;;;5019988;28;20236;-82
2020/12/06 02:12:10;;;;;;;46.88;18.58;;;5.10;99.90;;;;;;5017081;28;20557;-82
2020/12/06 02:14:36;;;;;;;45.60;18.52;;;5.10;99.90;;;;;;5017940;28;20206;-84
2020/12/06 02:17:02;;;;;;;52.88;17.88;;;5.00;99.90;;;;;;5013868;28;20197;-82
2020/12/06 02:19:28;;;;;;;48.50;18.10;;;5.10;99.90;;;;;;5017538;28;20288;-82
2020/12/06 02:21:53;;;;;;;42.92;17.60;;;5.10;99.90;;;;;;5023585;28;20289;-83
2020/12/06 02:24:19;;;;;;;48.03;18.58;;;5.10;99.90;;;;;;5024959;28;20206;-81
2020/12/06 02:26:47;;;;;;;60.60;18.85;;;5.10;99.90;;;;;;5023474;28;20190;-82
2020/12/06 02:29:13;;;;;;;61.00;17.45;;;5.10;99.90;;;;;;5021435;28;20195;-81
2020/12/06 02:31:40;;;;;;;45.25;17.52;;;5.10;99.90;;;;;;5025879;28;20252;-82
2020/12/06 02:34:07;;;;;;;40.97;16.95;;;5.10;99.90;;;;;;5024740;28;20194;-82
2020/12/06 02:36:33;;;;;;;46.97;17.23;;;5.10;99.90;;;;;;5020702;28;20190;-81
2020/12/06 02:38:59;;;;;;;54.72;17.83;;;5.10;99.90;;;;;;5024473;28;20721;-81
2020/12/06 02:41:43;;;;;;;55.13;19.13;;;5.10;99.90;;;;;;5016732;28;20233;-82
2020/12/06 02:44:10;;;;;;;48.15;15.75;;;5.10;99.90;;;;;;5022475;28;20276;-83
2020/12/06 02:46:36;;;;;;;43.53;16.58;;;5.10;99.90;;;;;;5018837;28;20202;-82
2020/12/06 02:49:02;;;;;;;42.65;17.30;;;5.10;99.90;;;;;;5019359;28;20237;-81
2020/12/06 02:51:28;;;;;;;60.50;17.63;;;5.10;99.90;;;;;;5021402;28;20202;-82
2020/12/06 02:53:54;;;;;;;47.58;18.33;;;5.10;99.90;;;;;;5024823;28;20686;-83
2020/12/06 02:56:19;;;;;;;44.05;17.30;;;5.10;99.90;;;;;;5022650;28;20202;-82
2020/12/06 02:58:45;;;;;;;48.50;17.40;;;5.10;99.90;;;;;;5021422;28;20238;-82
2020/12/06 03:01:12;;;;;;;52.78;18.25;;;5.10;99.90;;;;;;5019187;28;20767;-81
2020/12/06 03:03:38;;;;;;;56.22;18.98;;;5.10;99.90;;;;;;5015515;28;20309;-83
2020/12/06 03:06:04;;;;;;;51.45;18.83;;;5.10;99.90;;;;;;5019154;28;20190;-82
2020/12/06 03:08:30;;;;;;;61.65;20.20;;;5.10;99.90;;;;;;5018556;28;20255;-82
2020/12/06 03:10:56;;;;;;;69.68;20.30;;;5.10;99.90;;;;;;5021693;28;20202;-82
2020/12/06 03:13:22;;;;;;;51.25;19.55;;;5.20;99.90;;;;;;5021817;28;20205;-82
2020/12/06 03:15:47;;;;;;;48.95;17.33;;;5.20;99.90;;;;;;5022004;28;20223;-82
2020/12/06 03:18:13;;;;;;;58.28;19.70;;;5.20;99.90;;;;;;5021950;28;20206;-82
2020/12/06 03:20:39;;;;;;;68.18;18.42;;;5.20;99.90;;;;;;5018218;28;20222;-81
2020/12/06 03:23:05;;;;;;;41.47;17.55;;;5.10;99.90;;;;;;5039673;28;20236;-82
2020/12/06 03:25:30;;;;;;;69.85;17.65;;;5.10;99.90;;;;;;5021374;28;20190;-82
2020/12/06 03:27:56;;;;;;;42.00;17.02;;;5.10;99.90;;;;;;5018543;28;20287;-82
2020/12/06 03:30:22;;;;;;;60.42;17.50;;;5.10;99.90;;;;;;5017613;28;20574;-81
2020/12/06 03:32:47;;;;;;;71.55;17.38;;;5.00;99.90;;;;;;5016637;28;20199;-81
2020/12/06 03:35:13;;;;;;;39.53;15.65;;;5.00;99.90;;;;;;5020084;28;20324;-81
2020/12/06 03:37:39;;;;;;;42.15;15.48;;;5.00;99.90;;;;;;5018783;28;20206;-81
2020/12/06 03:40:04;;;;;;;33.58;14.82;;;4.90;99.90;;;;;;5017550;28;20249;-82
2020/12/06 03:42:30;;;;;;;34.85;14.85;;;4.90;99.90;;;;;;5014984;28;20228;-81
2020/12/06 03:44:56;;;;;;;33.38;13.68;;;4.90;99.90;;;;;;5017159;28;20569;-80
2020/12/06 03:47:21;;;;;;;38.20;15.30;;;4.90;99.90;;;;;;5020929;28;20602;-81
2020/12/06 03:49:47;;;;;;;53.00;16.38;;;4.90;99.90;;;;;;5018450;28;20199;-81
2020/12/06 03:52:13;;;;;;;38.05;16.60;;;4.90;99.90;;;;;;5020253;28;20260;-81
2020/12/06 03:54:38;;;;;;;62.17;16.58;;;4.90;99.90;;;;;;5016174;28;20883;-84
2020/12/06 03:57:07;;;;;;;41.45;16.40;;;4.90;99.90;;;;;;5020321;28;20253;-81
2020/12/06 03:59:33;;;;;;;85.00;18.42;;;4.90;99.90;;;;;;5016805;28;20195;-81
2020/12/06 04:01:58;;;;;;;72.88;17.13;;;4.80;99.90;;;;;;5015055;28;20587;-85
2020/12/06 04:04:24;;;;;;;53.75;17.08;;;4.90;99.90;;;;;;5017920;28;20222;-81
2020/12/06 04:06:50;;;;;;;43.47;16.55;;;4.90;99.90;;;;;;5018874;28;20196;-81
2020/12/06 04:09:15;;;;;;;43.83;16.25;;;4.90;99.90;;;;;;5015233;28;20202;-82
2020/12/06 04:11:41;;;;;;;42.22;16.27;;;4.90;99.90;;;;;;5014180;28;20703;-83
2020/12/06 04:14:07;;;;;;;42.88;15.60;;;4.90;99.90;;;;;;5015737;28;20256;-86
2020/12/06 04:16:32;;;;;;;101.60;16.60;;;4.90;99.90;;;;;;5019904;28;20229;-81
2020/12/06 04:18:58;;;;;;;42.42;14.98;;;4.90;99.90;;;;;;5023706;28;21090;-81
2020/12/06 04:21:24;;;;;;;40.78;15.07;;;4.90;99.90;;;;;;5024360;28;20599;-83
2020/12/06 04:23:50;;;;;;;67.20;17.60;;;4.90;99.90;;;;;;5037115;28;20368;-83
2020/12/06 04:26:16;;;;;;;38.25;15.85;;;4.90;99.90;;;;;;5022798;28;20281;-82
2020/12/06 04:28:41;;;;;;;78.93;17.13;;;4.90;99.90;;;;;;5017067;28;20198;-84
2020/12/06 04:31:07;;;;;;;36.45;14.93;;;4.80;99.90;;;;;;5017514;28;20365;-82
2020/12/06 04:33:33;;;;;;;40.20;16.23;;;4.80;99.90;;;;;;5018435;28;20686;-82
2020/12/06 04:35:58;;;;;;;177.10;20.83;;;4.90;99.90;;;;;;5025004;28;20206;-82
2020/12/06 04:38:24;;;;;;;80.40;18.38;;;4.80;99.90;;;;;;5025249;28;20201;-82
2020/12/06 04:40:50;;;;;;;40.53;16.20;;;4.90;99.90;;;;;;5018239;28;20675;-85
2020/12/06 04:43:18;;;;;;;38.28;15.05;;;4.90;99.90;;;;;;5025672;28;20386;-83
2020/12/06 04:45:46;;;;;;;39.58;15.93;;;4.80;99.90;;;;;;5023094;28;20207;-83
2020/12/06 04:48:26;;;;;;;115.93;18.20;;;4.90;99.90;;;;;;5021434;28;20197;-82
2020/12/06 04:50:55;;;;;;;89.72;17.05;;;4.80;99.90;;;;;;5018793;28;22595;-82
2020/12/06 04:53:26;;;;;;;38.60;14.45;;;4.90;99.90;;;;;;5039410;28;20251;-83
2020/12/06 04:55:55;;;;;;;32.28;13.85;;;4.80;99.90;;;;;;5018740;28;20197;-81
2020/12/06 04:58:25;;;;;;;37.40;15.25;;;4.80;99.90;;;;;;5024902;28;20213;-83
2020/12/06 05:00:51;;;;;;;31.48;14.35;;;4.80;99.90;;;;;;5021682;28;20520;-82
2020/12/06 05:03:21;;;;;;;35.58;14.70;;;4.80;99.90;;;;;;5025148;28;20794;-82
2020/12/06 05:05:49;;;;;;;153.93;18.23;;;4.80;99.90;;;;;;5033866;28;20194;-82
2020/12/06 05:08:17;;;;;;;41.38;16.52;;;4.80;99.90;;;;;;5020445;28;20193;-82
2020/12/06 05:10:48;;;;;;;43.20;15.38;;;4.70;99.90;;;;;;5020883;28;20559;-82
2020/12/06 05:13:15;;;;;;;35.40;15.07;;;4.70;99.90;;;;;;5022692;28;20197;-83
2020/12/06 05:15:43;;;;;;;570.42;38.28;;;4.60;99.90;;;;;;5019248;28;20206;-82
2020/12/06 05:18:09;;;;;;;36.15;14.82;;;4.60;99.90;;;;;;5023347;28;20227;-83
2020/12/06 05:20:35;;;;;;;477.98;28.40;;;4.50;99.90;;;;;;5035000;28;20233;-82
2020/12/06 05:23:02;;;;;;;506.88;30.33;;;4.50;99.90;;;;;;5019541;28;20189;-83
2020/12/06 05:25:27;;;;;;;592.08;34.65;;;4.40;99.90;;;;;;5034643;28;20193;-81
2020/12/06 05:27:53;;;;;;;702.95;40.30;;;4.40;99.90;;;;;;5019846;28;20245;-84
2020/12/06 05:30:19;;;;;;;481.42;30.70;;;4.30;99.90;;;;;;5018313;28;20209;-82
2020/12/06 05:32:46;;;;;;;501.48;30.70;;;4.20;99.90;;;;;;5017046;28;20224;-82
2020/12/06 05:35:13;;;;;;;368.50;30.05;;;4.20;99.90;;;;;;5036723;28;20193;-82
2020/12/06 05:37:40;;;;;;;476.13;28.13;;;4.20;99.90;;;;;;5037858;28;21075;-81
2020/12/06 05:40:12;;;;;;;246.00;21.13;;;4.10;99.90;;;;;;5032648;28;20197;-85
2020/12/06 05:42:42;;;;;;;117.07;16.30;;;4.10;99.90;;;;;;5022018;28;20318;-81
2020/12/06 05:45:09;;;;;;;45.35;14.25;;;4.00;99.90;;;;;;5022055;28;20188;-81
2020/12/06 05:47:35;;;;;;;45.72;15.85;;;4.00;99.90;;;;;;5021046;28;20232;-81
2020/12/06 05:50:01;;;;;;;32.08;13.73;;;4.00;99.90;;;;;;5018102;28;20211;-81
2020/12/06 05:52:31;;;;;;;52.35;15.43;;;4.10;99.90;;;;;;5018192;28;20252;-81
2020/12/06 05:54:59;;;;;;;65.85;14.75;;;4.10;99.90;;;;;;5033097;28;20190;-82
2020/12/06 05:57:26;;;;;;;74.63;15.80;;;4.10;99.90;;;;;;5015763;28;20201;-81
2020/12/06 05:59:57;;;;;;;35.60;13.57;;;4.00;99.90;;;;;;5019546;28;20729;-81
2020/12/06 06:02:23;;;;;;;62.33;14.40;;;4.00;99.90;;;;;;5030169;28;20614;-83
2020/12/06 06:04:50;;;;;;;52.92;13.85;;;4.00;99.90;;;;;;5014470;28;20284;-82
2020/12/06 06:07:21;;;;;;;30.88;13.40;;;4.00;99.90;;;;;;5017581;28;20616;-81
2020/12/06 06:09:58;;;;;;;33.20;13.52;;;4.00;99.90;;;;;;5014114;28;20205;-83
2020/12/06 06:12:24;;;;;;;32.80;13.35;;;4.00;99.90;;;;;;5034607;28;20203;-82
2020/12/06 06:14:52;;;;;;;30.35;13.23;;;4.00;99.90;;;;;;5018546;28;20219;-82
2020/12/06 06:17:21;;;;;;;32.88;13.73;;;4.00;99.90;;;;;;5013284;28;20193;-82
2020/12/06 06:19:48;;;;;;;30.58;13.80;;;4.00;99.90;;;;;;5016392;28;20201;-85
2020/12/06 06:22:17;;;;;;;56.78;15.68;;;4.00;99.90;;;;;;5014360;28;20854;-82
2020/12/06 06:24:45;;;;;;;32.30;13.43;;;4.00;99.90;;;;;;5015506;28;20198;-83
2020/12/06 06:27:11;;;;;;;54.05;15.80;;;4.00;99.90;;;;;;5013274;28;20198;-80
2020/12/06 06:29:37;;;;;;;41.85;15.38;;;4.00;99.90;;;;;;5014710;28;20254;-83
2020/12/06 06:32:03;;;;;;;35.15;14.18;;;4.00;99.90;;;;;;5038457;28;20206;-82
2020/12/06 06:34:34;;;;;;;91.13;18.20;;;4.00;99.90;;;;;;5018394;28;20233;-82
2020/12/06 06:37:00;;;;;;;106.65;17.45;;;4.10;99.90;;;;;;5019230;28;20731;-81
2020/12/06 06:39:26;;;;;;;65.50;17.17;;;4.00;99.90;;;;;;5031931;28;20284;-81
2020/12/06 06:42:01;;;;;;;77.18;18.02;;;4.10;99.90;;;;;;5020134;28;20250;-80
2020/12/06 06:44:28;;;;;;;40.70;15.98;;;4.10;99.90;;;;;;5021850;28;20664;-83
2020/12/06 06:47:01;;;;;;;42.40;16.35;;;4.10;99.90;;;;;;5016724;28;20198;-82
2020/12/06 06:49:27;;;;;;;37.83;14.82;;;4.10;99.90;;;;;;5022134;28;20707;-81
2020/12/06 06:51:54;;;;;;;34.10;15.05;;;4.10;99.90;;;;;;5017946;28;20217;-81
2020/12/06 06:54:28;;;;;;;33.50;14.50;;;4.20;99.90;;;;;;5019662;28;20556;-81
2020/12/06 06:56:56;;;;;;;37.95;15.25;;;4.20;99.90;;;;;;5022218;28;20254;-82
2020/12/06 06:59:44;;;;;;;34.20;15.43;;;4.20;99.90;;;;;;5019474;28;20194;-81
2020/12/06 07:02:38;;;;;;;34.75;14.07;;;4.20;99.90;;;;;;5032280;28;20233;-82
2020/12/06 07:05:13;;;;;;;32.97;14.10;;;4.20;99.90;;;;;;5015502;28;20214;-81
2020/12/06 07:07:52;;;;;;;62.33;16.17;;;4.20;99.90;;;;;;5034476;28;20196;-82
2020/12/06 07:10:24;;;;;;;104.88;16.40;;;4.30;99.90;;;;;;5041974;28;20235;-81
2020/12/06 07:12:53;;;;;;;41.70;14.35;;;4.30;99.90;;;;;;5037839;28;20566;-81
2020/12/06 07:15:21;;;;;;;148.73;18.58;;;4.30;99.90;;;;;;5023638;28;20252;-81
2020/12/06 07:17:47;;;;;;;35.42;14.57;;;4.30;99.90;;;;;;5028574;28;20228;-81
2020/12/06 07:20:15;;;;;;;32.38;14.35;;;4.30;99.90;;;;;;5027754;28;20540;-81
2020/12/06 07:22:41;;;;;;;61.70;15.02;;;4.30;99.90;;;;;;5022778;28;20568;-82
2020/12/06 07:25:10;;;;;;;48.35;14.38;;;4.30;99.90;;;;;;5025865;28;20232;-81
2020/12/06 07:27:36;;;;;;;45.03;14.45;;;4.40;99.90;;;;;;5038055;28;20202;-82
2020/12/06 07:30:08;;;;;;;29.67;12.90;;;4.40;99.90;;;;;;5046195;28;20189;-81
2020/12/06 07:32:34;;;;;;;30.52;13.40;;;4.40;99.90;;;;;;5040388;28;21219;-82
2020/12/06 07:35:00;;;;;;;41.30;15.48;;;4.40;99.90;;;;;;5037225;28;20196;-82
2020/12/06 07:37:26;;;;;;;33.65;14.15;;;4.40;99.90;;;;;;5023409;28;20198;-81
2020/12/06 07:39:52;;;;;;;36.70;13.32;;;4.40;99.90;;;;;;5022542;28;20244;-79
2020/12/06 07:42:23;;;;;;;109.72;17.15;;;4.50;99.90;;;;;;5019364;28;20225;-81
2020/12/06 07:44:55;;;;;;;40.65;13.80;;;4.40;99.90;;;;;;5020545;28;20247;-82
2020/12/06 07:47:22;;;;;;;61.78;13.90;;;4.40;99.90;;;;;;5026728;28;20216;-81
2020/12/06 07:49:49;;;;;;;29.95;13.10;;;4.40;99.90;;;;;;5026989;28;20198;-81
2020/12/06 07:52:16;;;;;;;28.52;12.68;;;4.50;99.90;;;;;;5045432;28;20193;-81
2020/12/06 07:54:51;;;;;;;52.10;14.15;;;4.50;99.90;;;;;;5025708;28;20201;-82
2020/12/06 07:57:21;;;;;;;41.05;15.30;;;4.50;99.90;;;;;;5046765;28;20238;-82
2020/12/06 07:59:47;;;;;;;48.25;16.63;;;4.40;99.90;;;;;;5025278;28;20569;-82
2020/12/06 08:02:13;;;;;;;45.60;16.60;;;4.50;99.90;;;;;;5022393;28;20194;-81
2020/12/06 08:04:39;;;;;;;58.90;17.40;;;4.50;99.90;;;;;;5026886;28;20927;-81
2020/12/06 08:07:20;;;;;;;35.20;15.80;;;4.50;99.90;;;;;;5028081;28;20193;-81
2020/12/06 08:09:48;;;;;;;43.20;16.05;;;4.40;99.90;;;;;;5022502;28;20197;-82
2020/12/06 08:12:16;;;;;;;62.60;16.98;;;4.50;99.90;;;;;;5039537;28;20198;-81
2020/12/06 08:14:42;;;;;;;48.70;18.73;;;4.50;99.90;;;;;;5036731;28;20284;-84
2020/12/06 08:17:07;;;;;;;48.60;16.08;;;4.50;99.90;;;;;;5022133;28;20304;-81
2020/12/06 08:19:33;;;;;;;74.55;17.00;;;4.40;99.90;;;;;;5038048;28;20231;-81
2020/12/06 08:22:00;;;;;;;37.65;15.77;;;4.50;99.90;;;;;;5041832;28;20217;-81
2020/12/06 08:24:27;;;;;;;36.83;14.73;;;4.50;99.90;;;;;;5024502;28;20679;-82
2020/12/06 08:26:53;;;;;;;50.78;15.27;;;4.50;99.90;;;;;;5023959;28;20190;-83
2020/12/06 08:29:19;;;;;;;69.07;16.50;;;4.50;99.90;;;;;;5018558;28;20582;-82
2020/12/06 08:31:46;;;;;;;32.88;14.52;;;4.50;99.90;;;;;;5027422;28;20205;-82
2020/12/06 08:34:13;;;;;;;33.42;15.15;;;4.50;99.90;;;;;;5021494;28;20644;-83
2020/12/06 08:36:40;;;;;;;40.20;15.43;;;4.50;99.90;;;;;;5036118;28;20612;-84
2020/12/06 08:39:19;;;;;;;43.08;14.98;;;4.60;99.90;;;;;;5021854;28;20797;-85
2020/12/06 08:41:46;;;;;;;40.05;16.83;;;4.50;99.90;;;;;;5030314;28;20966;-84
2020/12/06 08:44:12;;;;;;;55.55;24.25;;;4.60;99.90;;;;;;5019058;28;20200;-84
2020/12/06 08:46:52;;;;;;;149.18;35.67;;;4.50;99.90;;;;;;5033229;28;20271;-85
2020/12/06 08:49:24;;;;;;;54.97;23.85;;;4.50;99.90;;;;;;5018396;28;20186;-83
2020/12/06 08:51:54;;;;;;;56.80;24.20;;;4.50;99.90;;;;;;5014945;28;20275;-82
2020/12/06 08:54:36;;;;;;;51.08;22.05;;;4.50;99.90;;;;;;5030824;28;20206;-85
2020/12/06 08:57:11;;;;;;;46.08;20.92;;;4.50;99.90;;;;;;5027087;28;20348;-84
2020/12/06 08:59:39;;;;;;;47.05;21.58;;;4.50;99.90;;;;;;5018883;28;20242;-84
2020/12/06 09:02:06;;;;;;;56.63;23.13;;;4.50;99.90;;;;;;5017713;28;20213;-85
2020/12/06 09:04:37;;;;;;;71.20;26.20;;;4.50;99.90;;;;;;5033665;28;20205;-83
2020/12/06 09:07:06;;;;;;;46.45;21.80;;;4.60;99.90;;;;;;5017500;28;21186;-84
2020/12/06 09:09:32;;;;;;;59.75;22.88;;;4.60;99.90;;;;;;5015160;28;20194;-85
2020/12/06 09:11:58;;;;;;;46.60;21.27;;;4.60;99.90;;;;;;5014144;28;20225;-87
2020/12/06 09:14:25;;;;;;;49.35;21.00;;;4.60;99.90;;;;;;5010956;28;20202;-83
2020/12/06 09:16:51;;;;;;;48.92;21.35;;;4.60;99.90;;;;;;5014261;28;20529;-86
2020/12/06 09:19:17;;;;;;;45.13;20.63;;;4.60;99.90;;;;;;5018062;28;20210;-83
2020/12/06 09:21:43;;;;;;;79.70;21.60;;;4.60;99.90;;;;;;5019730;28;20205;-81
2020/12/06 09:24:09;;;;;;;52.22;20.58;;;4.60;99.90;;;;;;5019598;28;20204;-83
2020/12/06 09:26:38;;;;;;;45.15;19.17;;;4.70;99.90;;;;;;5032104;28;20562;-84
2020/12/06 09:29:12;;;;;;;120.35;22.33;;;4.70;99.90;;;;;;5033766;28;20186;-86
2020/12/06 09:31:38;;;;;;;46.50;19.45;;;4.70;99.90;;;;;;5019400;28;20265;-81
2020/12/06 09:34:04;;;;;;;258.13;29.25;;;4.70;99.90;;;;;;5018603;28;20192;-84
2020/12/06 09:36:33;;;;;;;255.95;25.95;;;4.70;99.90;;;;;;5014851;28;20201;-88
2020/12/06 09:39:43;;;;;;;;;;;;;;;;;;;;;
2020/12/06 09:41:58;;;;;;;196.23;22.05;;;4.70;99.90;;;;;;5022669;28;20233;-87
2020/12/06 09:44:24;;;;;;;176.93;26.13;;;4.80;99.90;;;;;;5014958;28;20201;-83
2020/12/06 09:46:50;;;;;;;103.25;19.67;;;4.80;99.90;;;;;;5022096;28;20203;-85
2020/12/06 09:49:15;;;;;;;43.35;18.77;;;4.80;99.90;;;;;;5021759;28;20259;-83
2020/12/06 09:51:42;;;;;;;79.32;22.70;;;4.80;99.90;;;;;;5017392;28;20197;-82
2020/12/06 09:54:08;;;;;;;44.42;18.15;;;4.80;99.90;;;;;;5031722;28;20248;-84
2020/12/06 09:56:33;;;;;;;45.67;19.52;;;4.80;99.90;;;;;;5021415;28;20193;-83
2020/12/06 09:58:59;;;;;;;40.65;18.15;;;4.90;99.90;;;;;;5033782;28;20197;-81
2020/12/06 10:01:29;;;;;;;46.03;18.27;;;4.90;99.90;;;;;;5016106;28;20197;-82
2020/12/06 10:03:55;;;;;;;47.53;17.98;;;4.90;99.90;;;;;;5035347;28;20229;-82
2020/12/06 10:06:31;;;;;;;92.88;20.95;;;4.90;99.90;;;;;;5015221;28;20480;-85
2020/12/06 10:09:04;;;;;;;58.47;18.67;;;4.90;99.90;;;;;;5018322;28;20304;-87
2020/12/06 10:11:32;;;;;;;67.03;19.25;;;4.90;99.90;;;;;;5015274;28;20289;-87
2020/12/06 10:14:04;;;;;;;82.65;19.77;;;4.90;99.90;;;;;;4995422;28;20197;-87
2020/12/06 10:16:29;;;;;;;98.55;20.60;;;4.90;99.90;;;;;;5020679;28;20619;-85
2020/12/06 10:18:55;;;;;;;112.45;19.77;;;4.90;99.90;;;;;;5017690;28;20206;-86
2020/12/06 10:21:21;;;;;;;93.38;19.42;;;5.00;99.90;;;;;;5018841;28;20232;-86
2020/12/06 10:23:46;;;;;;;45.20;18.13;;;5.00;99.90;;;;;;5018553;28;20193;-86
2020/12/06 10:26:12;;;;;;;171.43;24.52;;;5.00;99.90;;;;;;5038650;28;20204;-85
2020/12/06 10:28:38;;;;;;;201.77;23.20;;;5.00;99.90;;;;;;5018511;28;20677;-87
2020/12/06 10:31:04;;;;;;;72.82;20.77;;;5.00;99.90;;;;;;5035889;28;20206;-87
2020/12/06 10:33:29;;;;;;;95.07;22.88;;;5.00;99.90;;;;;;5034721;28;20201;-86
2020/12/06 10:35:55;;;;;;;57.05;21.33;;;5.10;99.90;;;;;;5018194;28;20209;-87
2020/12/06 10:38:21;;;;;;;58.80;19.90;;;5.10;99.90;;;;;;5034860;28;20676;-86
2020/12/06 10:40:46;;;;;;;53.33;20.30;;;5.10;99.90;;;;;;5022773;28;20691;-86
2020/12/06 10:43:12;;;;;;;59.15;20.83;;;5.10;99.90;;;;;;5041066;28;20646;-86
2020/12/06 10:45:38;;;;;;;68.82;20.92;;;5.10;99.90;;;;;;5044766;28;20243;-86
2020/12/06 10:48:04;;;;;;;56.05;22.33;;;5.10;99.90;;;;;;5045313;28;20189;-87
2020/12/06 10:50:30;;;;;;;55.72;21.25;;;5.10;99.90;;;;;;5043999;28;20304;-86
2020/12/06 10:52:56;;;;;;;56.13;20.63;;;5.10;99.90;;;;;;5034757;28;20201;-86
2020/12/06 10:55:24;;;;;;;60.42;20.63;;;5.10;99.90;;;;;;5040902;28;20205;-86
2020/12/06 10:57:52;;;;;;;52.05;19.50;;;5.10;99.90;;;;;;5024978;28;20201;-87
2020/12/06 11:00:17;;;;;;;61.55;20.23;;;5.10;99.90;;;;;;5040422;28;20210;-87
2020/12/06 11:02:43;;;;;;;58.88;20.92;;;5.10;99.90;;;;;;5019259;28;20229;-86
2020/12/06 11:05:09;;;;;;;53.55;20.52;;;5.20;99.90;;;;;;5038808;28;20255;-87
2020/12/06 11:07:34;;;;;;;48.50;18.95;;;5.20;99.90;;;;;;5021343;28;20189;-88
2020/12/06 11:10:00;;;;;;;57.05;19.95;;;5.20;99.90;;;;;;5025907;28;20240;-86
2020/12/06 11:12:26;;;;;;;53.55;19.30;;;5.20;99.90;;;;;;5018641;28;20201;-87
2020/12/06 11:14:51;;;;;;;52.03;20.25;;;5.20;99.90;;;;;;5044945;28;20194;-87
2020/12/06 11:17:17;;;;;;;54.38;21.58;;;5.20;99.90;;;;;;5024669;28;20241;-83
2020/12/06 11:19:43;;;;;;;46.35;18.75;;;5.20;99.90;;;;;;5041727;28;20202;-85
2020/12/06 11:22:08;;;;;;;50.17;19.30;;;5.20;99.90;;;;;;5026697;28;20278;-85
2020/12/06 11:24:35;;;;;;;63.10;19.90;;;5.20;99.90;;;;;;5027612;28;20193;-85
2020/12/06 11:27:01;;;;;;;64.95;20.10;;;5.20;99.90;;;;;;5023857;28;20645;-83
2020/12/06 11:29:27;;;;;;;51.47;19.55;;;5.20;99.90;;;;;;5037277;28;20198;-85
2020/12/06 11:31:53;;;;;;;52.58;20.23;;;5.20;99.90;;;;;;5023133;28;20267;-85
2020/12/06 11:34:23;;;;;;;50.13;20.08;;;5.20;99.90;;;;;;5039642;28;20669;-85
2020/12/06 11:36:49;;;;;;;43.88;19.05;;;5.20;99.90;;;;;;5020724;28;20321;-83
2020/12/06 11:39:15;;;;;;;45.17;19.38;;;5.20;99.90;;;;;;5020832;28;20197;-88
2020/12/06 11:41:41;;;;;;;50.00;19.55;;;5.30;99.90;;;;;;5028481;28;20686;-87
2020/12/06 11:44:07;;;;;;;46.33;18.77;;;5.30;99.90;;;;;;5023435;28;20202;-87
2020/12/06 11:46:32;;;;;;;49.78;19.88;;;5.30;99.90;;;;;;5025586;28;20631;-87
2020/12/06 11:48:58;;;;;;;48.03;18.95;;;5.20;99.90;;;;;;5024088;28;20196;-86
2020/12/06 11:51:23;;;;;;;43.90;18.73;;;5.20;99.90;;;;;;5038035;28;20221;-86
2020/12/06 11:53:49;;;;;;;43.22;18.77;;;5.30;99.90;;;;;;5041721;28;20193;-86
2020/12/06 11:56:15;;;;;;;44.95;20.17;;;5.30;99.90;;;;;;5023629;28;20197;-87
2020/12/06 11:58:44;;;;;;;49.17;18.75;;;5.30;99.90;;;;;;5026115;28;20639;-87
2020/12/06 12:01:10;;;;;;;46.40;20.40;;;5.30;99.90;;;;;;5017472;28;20233;-88
2020/12/06 12:03:36;;;;;;;49.75;22.35;;;5.30;99.90;;;;;;5022883;28;20610;-88
2020/12/06 12:06:02;;;;;;;50.92;20.58;;;5.40;99.90;;;;;;5037505;28;20556;-87
2020/12/06 12:08:28;;;;;;;46.83;20.25;;;5.40;99.90;;;;;;5039141;28;20190;-87
2020/12/06 12:10:54;;;;;;;61.63;23.20;;;5.40;99.90;;;;;;5030065;28;20190;-89
2020/12/06 12:13:19;;;;;;;53.40;22.05;;;5.40;99.90;;;;;;5018995;28;20256;-88
2020/12/06 12:15:45;;;;;;;59.95;23.92;;;5.40;99.90;;;;;;5020729;28;20197;-88
2020/12/06 12:18:11;;;;;;;60.95;22.95;;;5.40;99.90;;;;;;5032815;28;20212;-89
2020/12/06 12:20:36;;;;;;;56.38;24.08;;;5.40;99.90;;;;;;5029084;28;20256;-90
2020/12/06 12:23:02;;;;;;;88.53;36.03;;;5.40;99.90;;;;;;5019611;28;20190;-87
2020/12/06 12:25:28;;;;;;;57.35;23.63;;;5.40;99.90;;;;;;5031069;28;20204;-85
2020/12/06 12:28:09;;;;;;;58.22;25.35;;;5.40;99.90;;;;;;5033805;28;20265;-87
2020/12/06 12:30:40;;;;;;;59.28;22.70;;;5.50;99.90;;;;;;5025943;28;20521;-85
2020/12/06 12:33:06;;;;;;;49.05;20.88;;;5.50;99.90;;;;;;5029224;28;20213;-86
2020/12/06 12:35:32;;;;;;;61.20;21.25;;;5.50;99.90;;;;;;5029463;28;20285;-86
2020/12/06 12:37:58;;;;;;;50.08;21.33;;;5.50;99.90;;;;;;5026008;28;20241;-87